Time;durP1;ratioP1;P1;durP2;ratioP2;P2;SDS_P1;SDS_P2;PMS_P1;PMS_P2;Temp;Humidity;BMP_temperature;BMP_pressure;BME280_temperature;BME280_humidity;BME280_pressure;Samples;Min_cycle;Max_cycle;Signal;HPM_P1;HPM_P2
2022/09/03 00:00:26;;;;;;;9.95;5.60;;;29.20;99.90;;;;;;4188571;28;20046;-73
2022/09/03 00:02:44;;;;;;;6.57;4.97;;;29.30;99.90;;;;;;4207174;28;20479;-73
2022/09/03 00:05:28;;;;;;;7.85;4.65;;;29.30;99.90;;;;;;4207387;28;20526;-73
2022/09/03 00:08:02;;;;;;;6.93;4.68;;;29.30;99.90;;;;;;4203969;28;20036;-74
2022/09/03 00:10:20;;;;;;;7.75;4.70;;;29.30;99.90;;;;;;4206820;28;20036;-74
2022/09/03 00:12:38;;;;;;;5.80;4.07;;;29.30;99.90;;;;;;4206765;28;20540;-74
2022/09/03 00:15:02;;;;;;;4.97;3.97;;;29.30;99.90;;;;;;4205058;28;20067;-74
2022/09/03 00:17:24;;;;;;;5.72;4.10;;;29.30;99.90;;;;;;4207484;28;20040;-73
2022/09/03 00:19:34;;;;;;;6.68;4.25;;;29.30;99.90;;;;;;4204620;28;20097;-69
2022/09/03 00:22:01;;;;;;;7.05;4.03;;;29.30;99.90;;;;;;4207316;28;20048;-72
2022/09/03 00:24:15;;;;;;;9.70;4.93;;;29.30;99.90;;;;;;4207491;28;20048;-74
2022/09/03 00:26:34;;;;;;;6.68;4.00;;;29.30;99.90;;;;;;4205327;28;20063;-73
2022/09/03 00:28:54;;;;;;;5.20;3.88;;;29.30;99.90;;;;;;4205555;28;20887;-71
2022/09/03 00:31:26;;;;;;;5.80;4.22;;;29.40;99.90;;;;;;4206569;28;20048;-72
2022/09/03 00:33:34;;;;;;;8.48;4.63;;;29.40;99.90;;;;;;4204247;28;20036;-71
2022/09/03 00:36:10;;;;;;;9.07;4.28;;;29.30;99.90;;;;;;4204491;28;20078;-73
2022/09/03 00:38:17;;;;;;;6.25;4.28;;;29.40;99.90;;;;;;4205530;28;20063;-74
2022/09/03 00:40:46;;;;;;;5.45;4.22;;;29.40;99.90;;;;;;4206844;28;20044;-74
2022/09/03 00:43:06;;;;;;;5.63;4.07;;;29.50;99.90;;;;;;4206314;28;20102;-74
2022/09/03 00:45:33;;;;;;;6.57;4.30;;;29.50;99.90;;;;;;4205341;28;20631;-74
2022/09/03 00:48:10;;;;;;;5.38;3.92;;;29.40;99.90;;;;;;4222564;28;20067;-74
2022/09/03 00:50:48;;;;;;;6.65;4.43;;;29.50;99.90;;;;;;4206938;28;20752;-75
2022/09/03 00:53:25;;;;;;;6.18;4.40;;;29.50;99.90;;;;;;4205899;28;20473;-73
2022/09/03 00:55:57;;;;;;;7.57;5.10;;;29.50;99.90;;;;;;4205537;28;20787;-73
2022/09/03 00:58:26;;;;;;;6.53;4.90;;;29.50;99.90;;;;;;4205973;28;20048;-73
2022/09/03 01:00:31;;;;;;;6.80;5.05;;;29.60;99.90;;;;;;4207606;28;20538;-73
2022/09/03 01:03:07;;;;;;;7.72;5.65;;;29.60;99.90;;;;;;4209813;28;20043;-71
2022/09/03 01:05:44;;;;;;;9.27;5.90;;;29.50;99.90;;;;;;4208890;28;20563;-74
2022/09/03 01:08:10;;;;;;;7.50;5.38;;;29.50;99.90;;;;;;4187947;28;20040;-73
2022/09/03 01:10:46;;;;;;;7.30;5.60;;;29.40;99.90;;;;;;4222934;28;20051;-73
2022/09/03 01:13:14;;;;;;;9.40;5.47;;;29.40;99.90;;;;;;4172433;28;20151;-72
2022/09/03 01:15:50;;;;;;;7.80;5.40;;;29.40;99.90;;;;;;4207727;28;20052;-72
2022/09/03 01:18:11;;;;;;;10.10;5.55;;;29.50;99.90;;;;;;4209432;28;20086;-73
2022/09/03 01:20:38;;;;;;;7.80;5.00;;;29.60;99.90;;;;;;4210021;28;20043;-72
2022/09/03 01:23:19;;;;;;;6.18;4.90;;;29.70;99.90;;;;;;4208472;28;20201;-72
2022/09/03 01:26:03;;;;;;;8.63;4.65;;;29.70;99.90;;;;;;4205598;28;20050;-72
2022/09/03 01:28:19;;;;;;;7.43;4.60;;;29.80;99.90;;;;;;4208564;28;20132;-75
2022/09/03 01:30:24;;;;;;;8.02;4.35;;;29.90;99.90;;;;;;4210932;28;20127;-73
2022/09/03 01:33:01;;;;;;;9.98;4.70;;;30.00;99.90;;;;;;4210873;28;20402;-72
2022/09/03 01:35:30;;;;;;;7.10;4.68;;;30.00;99.90;;;;;;4209630;28;20126;-75
2022/09/03 01:37:44;;;;;;;6.85;4.60;;;30.00;99.90;;;;;;4206735;28;20372;-71
2022/09/03 01:40:07;;;;;;;10.70;4.55;;;30.10;99.90;;;;;;4221264;28;20383;-72
2022/09/03 01:42:39;;;;;;;6.57;4.55;;;29.90;99.90;;;;;;4193604;28;20051;-72
2022/09/03 01:45:11;;;;;;;12.10;4.93;;;29.70;99.90;;;;;;4209786;28;20490;-72
2022/09/03 01:47:50;;;;;;;8.20;4.50;;;29.80;99.90;;;;;;4200837;28;20059;-72
2022/09/03 01:50:21;;;;;;;6.00;4.03;;;29.90;99.90;;;;;;4191375;28;20618;-72
2022/09/03 01:52:51;;;;;;;7.22;4.70;;;30.00;99.90;;;;;;4210635;28;20126;-73
2022/09/03 01:55:21;;;;;;;7.32;4.82;;;30.10;99.90;;;;;;4213353;28;20120;-72
2022/09/03 01:57:58;;;;;;;6.75;4.40;;;30.10;99.90;;;;;;4212623;28;20697;-72
2022/09/03 02:00:12;;;;;;;5.13;4.38;;;30.10;99.90;;;;;;4211531;28;20126;-73
2022/09/03 02:02:29;;;;;;;7.03;5.00;;;30.10;99.90;;;;;;4211869;28;20044;-72
2022/09/03 02:04:36;;;;;;;5.68;4.68;;;29.90;99.90;;;;;;4213442;28;20044;-72
2022/09/03 02:06:47;;;;;;;6.80;4.43;;;30.00;99.90;;;;;;4210710;28;20040;-73
2022/09/03 02:08:59;;;;;;;6.15;4.47;;;29.90;99.90;;;;;;4212018;28;20067;-73
2022/09/03 02:11:09;;;;;;;5.40;4.45;;;30.00;99.90;;;;;;4209838;28;20140;-73
2022/09/03 02:13:23;;;;;;;9.40;7.30;;;30.00;99.90;;;;;;4210619;28;20066;-72
2022/09/03 02:15:48;;;;;;;9.18;5.97;;;29.90;99.90;;;;;;4198094;28;20130;-73
2022/09/03 02:18:00;;;;;;;7.38;5.60;;;29.90;99.90;;;;;;4213037;28;20055;-73
2022/09/03 02:20:13;;;;;;;7.20;5.20;;;29.90;99.90;;;;;;4244310;27;20047;-72
2022/09/03 02:22:21;;;;;;;7.35;5.05;;;30.00;99.90;;;;;;4210358;28;20063;-72
2022/09/03 02:24:35;;;;;;;6.68;5.05;;;30.00;99.90;;;;;;4211837;28;20051;-72
2022/09/03 02:26:40;;;;;;;5.25;4.35;;;30.20;99.90;;;;;;4211235;28;20055;-72
2022/09/03 02:28:45;;;;;;;7.75;5.05;;;29.80;99.90;;;;;;4211047;28;20498;-72
2022/09/03 02:30:52;;;;;;;5.95;4.68;;;29.80;99.90;;;;;;4211248;28;20127;-72
2022/09/03 02:33:04;;;;;;;8.38;4.75;;;30.00;99.90;;;;;;4209269;28;20484;-72
2022/09/03 02:35:14;;;;;;;6.43;4.63;;;29.90;99.90;;;;;;4212538;28;20036;-72
2022/09/03 02:37:22;;;;;;;5.88;4.90;;;29.90;99.90;;;;;;4210217;28;20570;-72
2022/09/03 02:39:27;;;;;;;6.30;4.82;;;29.70;99.90;;;;;;4212922;28;20507;-72
2022/09/03 02:41:32;;;;;;;6.88;5.35;;;29.80;99.90;;;;;;4212253;28;20052;-72
2022/09/03 02:43:46;;;;;;;5.90;5.30;;;30.00;99.90;;;;;;4212099;28;20571;-72
2022/09/03 02:45:52;;;;;;;6.60;5.38;;;29.90;99.90;;;;;;4211041;28;20044;-72
2022/09/03 02:47:58;;;;;;;5.97;4.85;;;29.70;99.90;;;;;;4211341;28;20048;-72
2022/09/03 02:50:09;;;;;;;9.77;6.10;;;29.80;99.90;;;;;;4212722;28;20040;-72
2022/09/03 02:52:14;;;;;;;8.80;6.72;;;29.80;99.90;;;;;;4213657;28;20048;-73
2022/09/03 02:54:19;;;;;;;9.57;6.00;;;29.80;99.90;;;;;;4212188;28;20040;-73
2022/09/03 02:56:28;;;;;;;8.50;6.20;;;29.80;99.90;;;;;;4211771;28;20760;-73
2022/09/03 02:58:35;;;;;;;7.43;6.10;;;29.80;99.90;;;;;;4199779;28;20071;-72
2022/09/03 03:00:39;;;;;;;8.60;6.53;;;29.80;99.90;;;;;;4196412;28;20083;-73
2022/09/03 03:02:49;;;;;;;9.60;6.78;;;29.60;99.90;;;;;;4196563;28;20048;-71
2022/09/03 03:04:54;;;;;;;9.90;6.72;;;29.20;99.90;;;;;;4195903;28;20048;-70
2022/09/03 03:06:59;;;;;;;7.68;6.13;;;29.00;99.90;;;;;;4195360;28;20044;-71
2022/09/03 03:09:08;;;;;;;7.07;5.60;;;29.00;99.90;;;;;;4200749;28;20059;-71
2022/09/03 03:11:17;;;;;;;6.35;4.95;;;28.90;99.90;;;;;;4212602;28;20048;-70
2022/09/03 03:13:22;;;;;;;6.70;5.20;;;29.00;99.90;;;;;;4212021;28;20779;-72
2022/09/03 03:15:30;;;;;;;11.27;5.78;;;29.00;99.90;;;;;;4211924;28;20056;-71
2022/09/03 03:17:35;;;;;;;7.95;4.95;;;28.70;99.90;;;;;;4211883;28;20034;-71
2022/09/03 03:19:40;;;;;;;6.85;4.90;;;28.70;99.90;;;;;;4210265;28;20134;-72
2022/09/03 03:21:47;;;;;;;11.13;4.80;;;28.70;99.90;;;;;;4211556;28;20094;-73
2022/09/03 03:23:55;;;;;;;11.80;4.75;;;28.70;99.90;;;;;;4212340;28;20052;-73
2022/09/03 03:26:03;;;;;;;5.43;4.20;;;28.80;99.90;;;;;;4210202;28;20131;-72
2022/09/03 03:28:15;;;;;;;4.88;3.67;;;28.90;99.90;;;;;;4176873;28;20045;-72
2022/09/03 03:30:19;;;;;;;6.13;4.55;;;28.90;99.90;;;;;;4208143;28;20038;-72
2022/09/03 03:32:24;;;;;;;7.63;5.03;;;28.90;99.90;;;;;;4211606;28;20032;-72
2022/09/03 03:34:32;;;;;;;8.18;5.82;;;29.00;99.90;;;;;;4211542;28;20097;-72
2022/09/03 03:36:37;;;;;;;11.35;5.90;;;29.20;99.90;;;;;;4208072;28;20051;-72
2022/09/03 03:38:42;;;;;;;8.60;6.05;;;29.30;99.90;;;;;;4211739;28;20116;-73
2022/09/03 03:40:50;;;;;;;7.82;5.32;;;29.40;99.90;;;;;;4211679;28;20487;-73
2022/09/03 03:42:57;;;;;;;6.75;4.65;;;29.60;99.90;;;;;;4208476;28;20589;-73
2022/09/03 03:45:02;;;;;;;5.55;4.40;;;29.50;99.90;;;;;;4209153;28;20105;-73
2022/09/03 03:47:11;;;;;;;6.30;5.45;;;29.60;99.90;;;;;;4208886;28;20044;-73
2022/09/03 03:49:16;;;;;;;6.40;5.00;;;29.70;99.90;;;;;;4211252;28;20052;-73
2022/09/03 03:51:20;;;;;;;7.72;4.88;;;29.70;99.90;;;;;;4211913;28;20036;-71
2022/09/03 03:53:29;;;;;;;4.78;4.28;;;29.80;99.90;;;;;;4209239;28;20040;-72
2022/09/03 03:55:35;;;;;;;7.38;4.38;;;29.90;99.90;;;;;;4209850;28;20410;-72
2022/09/03 03:57:40;;;;;;;5.43;3.63;;;29.90;99.90;;;;;;4210463;28;20040;-72
2022/09/03 03:59:50;;;;;;;5.22;3.75;;;30.10;99.90;;;;;;4209489;28;20172;-72
2022/09/03 04:01:55;;;;;;;5.25;3.88;;;30.10;99.90;;;;;;4211078;28;20386;-72
2022/09/03 04:04:00;;;;;;;7.22;4.00;;;30.20;99.90;;;;;;4211073;28;20047;-72
2022/09/03 04:06:11;;;;;;;6.68;4.55;;;30.30;99.90;;;;;;4224693;28;20050;-73
2022/09/03 04:08:16;;;;;;;12.32;8.20;;;30.50;99.90;;;;;;4227055;28;20050;-72
2022/09/03 04:10:22;;;;;;;7.80;5.25;;;30.50;99.90;;;;;;4211042;28;20048;-73
2022/09/03 04:12:32;;;;;;;4.55;3.60;;;30.40;99.90;;;;;;4192134;28;20055;-72
2022/09/03 04:14:37;;;;;;;7.07;3.88;;;30.20;99.90;;;;;;4210658;28;20040;-72
2022/09/03 04:16:45;;;;;;;4.00;3.60;;;30.10;99.90;;;;;;4210932;28;20040;-72
2022/09/03 04:18:52;;;;;;;4.30;3.50;;;30.10;99.90;;;;;;4209014;28;20052;-72
2022/09/03 04:21:03;;;;;;;4.30;3.58;;;30.10;99.90;;;;;;4211280;28;20044;-74
2022/09/03 04:23:07;;;;;;;6.72;3.30;;;29.90;99.90;;;;;;4207783;28;20498;-72
2022/09/03 04:25:16;;;;;;;7.72;3.38;;;29.90;99.90;;;;;;4211229;28;20137;-72
2022/09/03 04:27:20;;;;;;;5.70;3.53;;;30.10;99.90;;;;;;4209623;28;20052;-73
2022/09/03 04:29:29;;;;;;;3.95;3.08;;;30.20;99.90;;;;;;4208021;28;20059;-73
2022/09/03 04:32:51;;;;;;;5.82;3.20;;;30.30;99.90;;;;;;4210634;28;20076;-72
2022/09/03 04:34:09;;;;;;;5.97;3.17;;;30.30;99.90;;;;;;4209588;28;20090;-72
2022/09/03 04:36:22;;;;;;;5.45;3.42;;;30.30;99.90;;;;;;4209637;28;20036;-73
2022/09/03 04:38:33;;;;;;;6.95;3.25;;;30.20;99.90;;;;;;4220784;28;20063;-73
2022/09/03 04:40:38;;;;;;;4.32;3.60;;;30.30;99.90;;;;;;4207941;28;20078;-73
2022/09/03 04:42:42;;;;;;;5.85;3.63;;;30.40;99.90;;;;;;4211689;28;20048;-74
2022/09/03 04:44:51;;;;;;;5.35;3.45;;;30.40;99.90;;;;;;4225374;28;20036;-73
2022/09/03 04:46:56;;;;;;;6.13;3.35;;;30.20;99.90;;;;;;4211659;28;20036;-74
2022/09/03 04:49:01;;;;;;;5.72;3.38;;;30.10;99.90;;;;;;4211626;28;20040;-71
2022/09/03 04:51:13;;;;;;;8.52;4.25;;;30.40;99.90;;;;;;4208914;28;20148;-71
2022/09/03 04:53:18;;;;;;;5.57;3.50;;;30.50;99.90;;;;;;4211217;28;20067;-73
2022/09/03 04:55:23;;;;;;;6.28;3.60;;;30.60;99.90;;;;;;4211602;28;20040;-74
2022/09/03 04:57:33;;;;;;;4.75;3.40;;;30.70;99.90;;;;;;4212659;28;20133;-74
2022/09/03 04:59:39;;;;;;;6.00;3.50;;;30.80;99.90;;;;;;4210126;28;20131;-74
2022/09/03 05:01:46;;;;;;;3.72;3.20;;;30.90;99.90;;;;;;4208983;28;20502;-74
2022/09/03 05:03:56;;;;;;;3.47;2.75;;;31.00;99.90;;;;;;4209967;28;20534;-73
2022/09/03 05:06:01;;;;;;;3.72;2.65;;;31.00;99.90;;;;;;4211642;28;20040;-75
2022/09/03 05:08:07;;;;;;;4.95;3.35;;;31.10;99.90;;;;;;4211512;28;20047;-74
2022/09/03 05:10:19;;;;;;;5.35;3.20;;;31.20;99.90;;;;;;4211485;28;20050;-73
2022/09/03 05:12:24;;;;;;;5.80;3.13;;;31.50;99.90;;;;;;4208807;28;20043;-74
2022/09/03 05:14:29;;;;;;;5.47;3.38;;;31.60;99.90;;;;;;4211472;28;20402;-73
2022/09/03 05:16:39;;;;;;;6.50;3.60;;;31.70;99.90;;;;;;4209875;28;20429;-74
2022/09/03 05:18:44;;;;;;;4.28;3.25;;;31.80;99.90;;;;;;4207849;28;20059;-73
2022/09/03 05:21:04;;;;;;;6.60;3.40;;;31.90;99.90;;;;;;4211137;28;20040;-74
2022/09/03 05:23:13;;;;;;;8.05;3.35;;;32.10;99.90;;;;;;4209434;28;20498;-75
2022/09/03 05:25:19;;;;;;;6.57;3.25;;;32.00;99.90;;;;;;4208394;28;20550;-74
2022/09/03 05:27:23;;;;;;;4.53;3.30;;;32.10;99.90;;;;;;4211245;28;20449;-75
2022/09/03 05:29:32;;;;;;;3.72;2.95;;;32.20;99.90;;;;;;4208600;28;20074;-73
2022/09/03 05:31:38;;;;;;;7.65;3.40;;;32.30;99.90;;;;;;4210506;28;20032;-73
2022/09/03 05:33:44;;;;;;;7.00;3.45;;;32.30;99.90;;;;;;4211198;28;20499;-71
2022/09/03 05:36:01;;;;;;;6.43;3.40;;;32.40;99.90;;;;;;4210700;28;20036;-72
2022/09/03 05:38:11;;;;;;;3.33;2.80;;;32.40;99.90;;;;;;4209595;28;20052;-70
2022/09/03 05:40:22;;;;;;;4.50;2.85;;;32.20;99.50;;;;;;4210547;28;20036;-71
2022/09/03 05:42:31;;;;;;;4.93;3.90;;;32.20;99.90;;;;;;4206717;28;20101;-73
2022/09/03 05:44:35;;;;;;;3.60;3.20;;;32.20;99.90;;;;;;4209716;28;20123;-71
2022/09/03 05:46:40;;;;;;;3.67;3.28;;;32.30;99.90;;;;;;4208701;28;20967;-73
2022/09/03 05:48:48;;;;;;;3.05;2.72;;;32.30;99.90;;;;;;4210562;28;20474;-73
2022/09/03 05:51:02;;;;;;;4.32;2.90;;;32.30;99.90;;;;;;4210478;28;20068;-73
2022/09/03 05:53:08;;;;;;;4.45;2.83;;;32.50;99.90;;;;;;4210514;28;20510;-73
2022/09/03 05:55:16;;;;;;;4.88;3.17;;;32.60;99.80;;;;;;4210208;28;20048;-73
2022/09/03 05:57:22;;;;;;;4.07;3.30;;;32.50;99.20;;;;;;4210142;28;20040;-73
2022/09/03 05:59:27;;;;;;;3.75;3.40;;;32.60;98.90;;;;;;4208589;28;20036;-72
2022/09/03 06:01:41;;;;;;;4.07;3.60;;;32.60;98.70;;;;;;4209358;28;20051;-73
2022/09/03 06:04:01;;;;;;;6.15;4.07;;;32.60;98.10;;;;;;4208798;28;20048;-73
2022/09/03 06:06:08;;;;;;;7.78;3.78;;;32.60;98.30;;;;;;4208543;28;20130;-72
2022/09/03 06:08:15;;;;;;;4.55;3.38;;;32.80;97.70;;;;;;4209969;28;20048;-73
2022/09/03 06:10:20;;;;;;;3.80;3.40;;;32.70;97.40;;;;;;4208085;28;20032;-72
2022/09/03 06:12:30;;;;;;;3.90;3.50;;;32.60;97.80;;;;;;4209686;28;20441;-70
2022/09/03 06:14:39;;;;;;;3.97;3.60;;;32.70;97.60;;;;;;4206937;28;20515;-74
2022/09/03 06:16:48;;;;;;;5.78;4.00;;;32.70;96.80;;;;;;4209907;28;20055;-73
2022/09/03 06:18:53;;;;;;;5.28;4.00;;;32.80;96.50;;;;;;4210526;28;20071;-73
2022/09/03 06:21:03;;;;;;;5.68;4.07;;;32.90;96.60;;;;;;4210297;28;20068;-73
2022/09/03 06:23:09;;;;;;;8.15;3.90;;;33.00;96.70;;;;;;4209767;28;20677;-72
2022/09/03 06:25:14;;;;;;;4.50;4.05;;;32.80;97.10;;;;;;4203829;28;20105;-72
2022/09/03 06:27:23;;;;;;;5.80;3.92;;;32.80;97.50;;;;;;4208839;28;20036;-71
2022/09/03 06:29:28;;;;;;;4.60;4.05;;;32.90;97.10;;;;;;4208883;28;20044;-73
2022/09/03 06:31:34;;;;;;;4.72;3.90;;;33.00;96.80;;;;;;4211467;28;20090;-72
2022/09/03 06:33:42;;;;;;;4.05;3.72;;;33.00;96.90;;;;;;4209836;28;20052;-72
2022/09/03 06:35:47;;;;;;;4.53;3.63;;;32.90;96.70;;;;;;4212200;28;20048;-72
2022/09/03 06:37:52;;;;;;;5.13;3.78;;;32.90;96.60;;;;;;4210604;28;20074;-72
2022/09/03 06:40:02;;;;;;;3.75;3.45;;;32.80;96.90;;;;;;4212360;28;20131;-72
2022/09/03 06:42:15;;;;;;;4.07;3.40;;;32.80;96.50;;;;;;4212083;28;20526;-72
2022/09/03 06:44:27;;;;;;;4.25;3.70;;;32.80;96.40;;;;;;4241124;27;20092;-73
2022/09/03 06:46:41;;;;;;;4.00;3.60;;;33.00;96.30;;;;;;4208881;28;20063;-72
2022/09/03 06:48:46;;;;;;;4.28;3.63;;;33.10;96.20;;;;;;4210136;28;20097;-73
2022/09/03 06:51:17;;;;;;;4.40;3.55;;;33.20;96.40;;;;;;4211899;28;20113;-72
2022/09/03 06:53:25;;;;;;;3.87;3.47;;;33.30;95.80;;;;;;4208617;28;20101;-72
2022/09/03 06:55:38;;;;;;;4.45;3.85;;;33.30;95.60;;;;;;4209066;28;20542;-73
2022/09/03 06:57:45;;;;;;;3.45;3.05;;;33.40;95.40;;;;;;4211571;28;20055;-72
2022/09/03 06:59:55;;;;;;;4.13;3.72;;;32.90;95.20;;;;;;4208770;28;20051;-72
2022/09/03 07:02:02;;;;;;;3.75;3.38;;;32.90;95.80;;;;;;4207818;28;20439;-72
2022/09/03 07:04:08;;;;;;;4.65;3.75;;;33.10;95.90;;;;;;4209663;28;20482;-74
2022/09/03 07:06:18;;;;;;;6.28;4.13;;;33.10;95.60;;;;;;4208178;28;20040;-72
2022/09/03 07:08:23;;;;;;;5.75;3.40;;;33.00;95.90;;;;;;4211300;28;20039;-73
2022/09/03 07:10:28;;;;;;;6.07;3.42;;;32.90;96.20;;;;;;4211274;28;20136;-74
2022/09/03 07:12:36;;;;;;;4.38;3.20;;;33.10;96.10;;;;;;4211456;28;20036;-73
2022/09/03 07:14:45;;;;;;;4.53;3.63;;;33.30;95.90;;;;;;4224533;28;20063;-74
2022/09/03 07:16:53;;;;;;;4.53;3.40;;;33.40;95.50;;;;;;4209564;28;20044;-73
2022/09/03 07:19:03;;;;;;;4.25;3.65;;;33.40;95.60;;;;;;4208700;28;20135;-73
2022/09/03 07:21:15;;;;;;;5.68;3.67;;;33.60;95.50;;;;;;4211228;28;20040;-73
2022/09/03 07:23:20;;;;;;;3.55;3.17;;;33.70;95.60;;;;;;4210731;28;20052;-73
2022/09/03 07:25:27;;;;;;;4.05;3.40;;;33.50;95.20;;;;;;4224191;28;20057;-73
2022/09/03 07:27:34;;;;;;;5.68;3.35;;;33.40;95.40;;;;;;4210907;28;20113;-73
2022/09/03 07:29:38;;;;;;;4.15;3.75;;;33.70;94.90;;;;;;4209806;28;20048;-74
2022/09/03 07:31:43;;;;;;;6.10;3.83;;;33.70;94.70;;;;;;4208204;28;21099;-74
2022/09/03 07:33:47;;;;;;;4.82;4.00;;;33.60;94.80;;;;;;4210009;28;20067;-72
2022/09/03 07:35:53;;;;;;;4.93;3.85;;;33.60;95.10;;;;;;4210955;28;20040;-72
2022/09/03 07:38:01;;;;;;;4.18;3.78;;;33.60;94.80;;;;;;4210735;28;20040;-73
2022/09/03 07:40:06;;;;;;;10.38;4.20;;;33.50;94.90;;;;;;4207733;28;20040;-72
2022/09/03 07:42:12;;;;;;;5.82;3.80;;;33.50;94.90;;;;;;4192386;28;20075;-75
2022/09/03 07:44:21;;;;;;;3.97;3.55;;;33.50;94.50;;;;;;4208542;28;20047;-72
2022/09/03 07:46:29;;;;;;;4.20;3.50;;;33.10;95.30;;;;;;4208087;28;20127;-73
2022/09/03 07:48:36;;;;;;;4.43;3.70;;;33.00;95.70;;;;;;4208280;28;20378;-72
2022/09/03 07:50:44;;;;;;;5.88;4.43;;;33.10;95.90;;;;;;4209771;28;20075;-73
2022/09/03 07:52:49;;;;;;;6.20;4.80;;;33.00;95.80;;;;;;4207854;28;20044;-73
2022/09/03 07:54:53;;;;;;;6.32;5.63;;;32.90;96.20;;;;;;4209296;28;20064;-72
2022/09/03 07:57:02;;;;;;;7.03;5.60;;;33.10;96.00;;;;;;4209005;28;20613;-72
2022/09/03 07:59:08;;;;;;;5.45;4.63;;;33.30;95.80;;;;;;4210058;28;20036;-71
2022/09/03 08:01:21;;;;;;;5.00;4.50;;;33.30;95.40;;;;;;4209928;28;20032;-72
2022/09/03 08:03:30;;;;;;;6.45;4.40;;;33.50;95.30;;;;;;4174867;28;20480;-72
2022/09/03 08:05:36;;;;;;;5.43;4.20;;;33.50;95.20;;;;;;4206098;28;20782;-73
2022/09/03 08:07:40;;;;;;;5.72;4.53;;;33.40;95.10;;;;;;4209875;28;20426;-71
2022/09/03 08:09:47;;;;;;;5.30;4.50;;;33.20;95.20;;;;;;4171666;28;20060;-71
2022/09/03 08:11:52;;;;;;;4.28;3.88;;;33.10;94.90;;;;;;4209933;28;20076;-71
2022/09/03 08:14:01;;;;;;;4.93;3.85;;;33.00;95.20;;;;;;4205885;28;20147;-72
2022/09/03 08:16:14;;;;;;;4.60;4.07;;;33.00;94.80;;;;;;4171893;28;20137;-72
2022/09/03 08:18:19;;;;;;;4.63;4.00;;;33.20;94.60;;;;;;4207133;28;20046;-73
2022/09/03 08:20:25;;;;;;;5.20;3.95;;;33.30;94.40;;;;;;4238997;27;20100;-73
2022/09/03 08:22:36;;;;;;;4.18;3.67;;;33.30;94.00;;;;;;4209715;28;20793;-73
2022/09/03 08:24:41;;;;;;;5.57;3.80;;;33.30;94.00;;;;;;4210010;28;20074;-73
2022/09/03 08:26:45;;;;;;;4.63;3.83;;;33.20;94.30;;;;;;4207058;28;20040;-74
2022/09/03 08:28:57;;;;;;;6.20;3.72;;;33.20;94.50;;;;;;4207291;28;20139;-74
2022/09/03 08:31:14;;;;;;;4.70;3.70;;;33.30;94.60;;;;;;4209667;28;20560;-72
2022/09/03 08:33:35;;;;;;;3.45;3.10;;;33.30;94.80;;;;;;4184998;28;20717;-71
2022/09/03 08:35:52;;;;;;;3.38;3.08;;;33.00;95.10;;;;;;4207556;28;20123;-71
2022/09/03 08:38:00;;;;;;;5.10;3.35;;;32.90;95.80;;;;;;4205829;28;20107;-73
2022/09/03 08:40:06;;;;;;;5.03;3.60;;;32.80;96.20;;;;;;4209853;28;20068;-73
2022/09/03 08:42:36;;;;;;;4.60;3.28;;;32.70;96.10;;;;;;4207699;28;20040;-72
2022/09/03 08:44:55;;;;;;;3.83;3.42;;;32.60;96.00;;;;;;4208345;28;20142;-72
2022/09/03 08:47:13;;;;;;;5.30;3.45;;;32.80;96.20;;;;;;4209495;28;20036;-72
2022/09/03 08:49:45;;;;;;;5.57;3.35;;;32.80;96.40;;;;;;4207466;28;20047;-73
2022/09/03 08:51:58;;;;;;;4.28;3.22;;;32.80;96.80;;;;;;4220958;28;20050;-74
2022/09/03 08:54:03;;;;;;;4.30;3.10;;;32.90;96.60;;;;;;4205668;28;20048;-72
2022/09/03 08:56:20;;;;;;;5.97;3.10;;;32.70;96.90;;;;;;4208681;28;20046;-73
2022/09/03 08:58:26;;;;;;;3.70;3.00;;;32.50;97.40;;;;;;4207712;28;20470;-72
2022/09/03 09:01:02;;;;;;;3.60;3.30;;;32.40;97.60;;;;;;4208594;28;20032;-72
2022/09/03 09:03:44;;;;;;;5.20;3.25;;;32.40;97.80;;;;;;4208371;28;20051;-73
2022/09/03 09:06:06;;;;;;;4.07;3.42;;;32.60;98.10;;;;;;4208163;28;20177;-73
2022/09/03 09:08:36;;;;;;;4.47;3.53;;;32.70;98.00;;;;;;4207172;28;20582;-72
2022/09/03 09:10:48;;;;;;;4.85;3.50;;;32.40;97.80;;;;;;4205976;28;20134;-73
2022/09/03 09:13:24;;;;;;;4.50;3.70;;;32.40;98.00;;;;;;4206683;28;20080;-71
2022/09/03 09:15:53;;;;;;;4.97;3.63;;;32.40;98.00;;;;;;4206371;28;20821;-74
2022/09/03 09:18:22;;;;;;;5.15;3.90;;;32.40;98.00;;;;;;4206287;28;20047;-73
2022/09/03 09:20:46;;;;;;;6.00;4.28;;;32.40;97.60;;;;;;4207034;28;20035;-73
2022/09/03 09:23:05;;;;;;;6.57;4.18;;;32.40;97.40;;;;;;4206733;28;20695;-73
2022/09/03 09:25:17;;;;;;;7.18;4.45;;;32.30;97.40;;;;;;4187407;28;20040;-74
2022/09/03 09:27:23;;;;;;;8.60;4.80;;;32.30;97.30;;;;;;4206026;28;20044;-72
2022/09/03 09:29:36;;;;;;;8.57;5.07;;;32.40;97.40;;;;;;4204637;28;20611;-73
2022/09/03 09:31:44;;;;;;;5.13;4.40;;;32.40;97.50;;;;;;4206491;28;20040;-72
2022/09/03 09:33:52;;;;;;;5.40;3.70;;;32.40;97.60;;;;;;4203233;28;20044;-71
2022/09/03 09:36:02;;;;;;;3.85;3.05;;;32.40;97.40;;;;;;4205752;28;20044;-72
2022/09/03 09:38:09;;;;;;;5.53;3.75;;;32.30;97.60;;;;;;4204831;28;20383;-71
2022/09/03 09:40:31;;;;;;;7.07;4.68;;;32.40;97.50;;;;;;4206189;28;20066;-73
2022/09/03 09:42:38;;;;;;;9.00;4.97;;;32.40;97.20;;;;;;4206942;28;20055;-72
2022/09/03 09:44:44;;;;;;;5.88;4.88;;;32.50;97.20;;;;;;4208816;28;20536;-72
2022/09/03 09:46:51;;;;;;;5.45;3.55;;;32.50;97.20;;;;;;4205738;28;20089;-72
2022/09/03 09:48:57;;;;;;;6.60;3.47;;;32.30;97.40;;;;;;4208827;28;20066;-73
2022/09/03 09:51:09;;;;;;;4.97;3.95;;;32.10;98.30;;;;;;4208167;28;20127;-72
2022/09/03 09:53:17;;;;;;;6.15;3.78;;;32.10;98.50;;;;;;4207025;28;20906;-73
2022/09/03 09:55:25;;;;;;;6.32;4.03;;;32.00;98.90;;;;;;4208585;28;20048;-73
2022/09/03 09:57:31;;;;;;;7.57;3.78;;;32.10;98.80;;;;;;4205960;28;20588;-72
2022/09/03 09:59:41;;;;;;;5.47;4.07;;;32.10;98.60;;;;;;4208019;28;20048;-71
2022/09/03 10:01:51;;;;;;;4.03;3.53;;;32.10;99.00;;;;;;4207062;28;20055;-72
2022/09/03 10:03:59;;;;;;;3.80;3.15;;;32.00;98.90;;;;;;4206889;28;20036;-73
2022/09/03 10:08:27;;;;;;;4.57;3.20;;;31.80;98.80;;;;;;4210449;28;20059;-69
2022/09/03 10:10:36;;;;;;;5.55;3.45;;;31.80;98.60;;;;;;4209460;28;20047;-70
2022/09/03 10:12:44;;;;;;;4.35;3.30;;;31.90;98.80;;;;;;4210115;28;20477;-72
2022/09/03 10:15:27;;;;;;;5.45;3.05;;;31.90;98.80;;;;;;4210446;28;20043;-71
2022/09/03 10:17:42;;;;;;;7.68;4.00;;;32.00;98.70;;;;;;4210809;28;20090;-70
2022/09/03 10:22:41;;;;;;;6.60;3.45;;;32.00;98.80;;;;;;4209068;28;20088;-70
2022/09/03 10:25:01;;;;;;;6.07;3.60;;;31.90;98.90;;;;;;4210341;28;20126;-70
2022/09/03 10:27:10;;;;;;;7.70;5.13;;;31.90;98.80;;;;;;4211565;28;21680;-74
2022/09/03 10:29:28;;;;;;;7.03;3.67;;;31.90;98.80;;;;;;4209829;28;20536;-73
2022/09/03 10:31:55;;;;;;;6.75;4.10;;;31.90;98.80;;;;;;4209747;28;20054;-72
2022/09/03 10:34:31;;;;;;;7.15;4.63;;;31.90;99.10;;;;;;4211475;28;20461;-71
2022/09/03 10:36:54;;;;;;;7.13;4.60;;;31.80;99.10;;;;;;4211421;28;20031;-71
2022/09/03 10:39:25;;;;;;;5.70;4.72;;;31.90;99.20;;;;;;4210102;28;20528;-71
2022/09/03 10:41:58;;;;;;;5.15;4.25;;;31.80;99.10;;;;;;4208132;28;20097;-72
2022/09/03 10:44:22;;;;;;;8.63;4.30;;;31.80;99.00;;;;;;4209737;28;20047;-72
2022/09/03 10:46:28;;;;;;;5.07;3.38;;;31.80;99.20;;;;;;4210949;28;20036;-72
2022/09/03 10:48:59;;;;;;;5.40;3.80;;;31.80;99.00;;;;;;4209369;28;20052;-72
2022/09/03 10:51:19;;;;;;;5.47;3.78;;;31.80;98.90;;;;;;4189922;28;20064;-72
2022/09/03 10:53:51;;;;;;;5.68;3.38;;;31.80;98.90;;;;;;4210829;28;20043;-71
2022/09/03 10:56:05;;;;;;;9.98;3.50;;;31.80;99.00;;;;;;4210354;28;20068;-70
2022/09/03 10:58:40;;;;;;;8.40;3.63;;;31.80;99.10;;;;;;4208667;28;20052;-71
2022/09/03 11:00:59;;;;;;;7.75;4.40;;;31.70;99.40;;;;;;4210397;28;20051;-70
2022/09/03 11:03:50;;;;;;;8.95;4.88;;;31.70;99.40;;;;;;4209566;28;20427;-71
2022/09/03 11:06:23;;;;;;;8.15;5.20;;;31.80;99.40;;;;;;4210412;28;20074;-71
2022/09/03 11:08:42;;;;;;;9.27;4.93;;;31.70;99.50;;;;;;4209377;28;20182;-72
2022/09/03 11:10:59;;;;;;;8.00;5.05;;;31.70;99.50;;;;;;4209682;28;20048;-71
2022/09/03 11:13:13;;;;;;;13.07;6.82;;;31.70;99.50;;;;;;4209976;28;20564;-71
2022/09/03 11:15:24;;;;;;;8.43;5.15;;;31.70;99.60;;;;;;4209248;28;20130;-72
2022/09/03 11:17:45;;;;;;;7.70;5.30;;;31.60;99.70;;;;;;4206780;28;20048;-70
2022/09/03 11:20:22;;;;;;;9.43;5.95;;;31.70;99.80;;;;;;4208482;28;20135;-69
2022/09/03 11:22:28;;;;;;;9.43;5.60;;;31.60;99.90;;;;;;4210586;28;20542;-70
2022/09/03 11:24:36;;;;;;;9.85;6.53;;;31.60;99.90;;;;;;4210100;28;20486;-67
2022/09/03 11:26:57;;;;;;;9.43;6.47;;;31.50;99.90;;;;;;4208831;28;20071;-72
2022/09/03 11:29:09;;;;;;;6.80;5.53;;;31.50;99.90;;;;;;4208733;28;20048;-68
2022/09/03 11:31:24;;;;;;;8.48;5.53;;;31.50;99.90;;;;;;4207233;28;20051;-73
2022/09/03 11:33:33;;;;;;;9.43;5.45;;;31.40;99.90;;;;;;4208879;28;20829;-70
2022/09/03 11:35:40;;;;;;;10.35;5.57;;;31.40;99.90;;;;;;4208727;28;20127;-73
2022/09/03 11:37:57;;;;;;;10.00;5.57;;;31.40;99.90;;;;;;4210007;28;20040;-74